sensor_id;sensor_type;location;lat;lon;timestamp;P1;durP1;ratioP1;P2;durP2;ratioP2
15536;SDS011;7870;52.448;13.270;2024-03-02T00:00:04;40.53;;;29.13;;
15536;SDS011;7870;52.448;13.270;2024-03-02T00:02:40;38.60;;;28.60;;
15536;SDS011;7870;52.448;13.270;2024-03-02T00:05:07;43.15;;;29.70;;
15536;SDS011;7870;52.448;13.270;2024-03-02T00:07:34;44.65;;;31.15;;
15536;SDS011;7870;52.448;13.270;2024-03-02T00:10:02;43.42;;;29.98;;
15536;SDS011;7870;52.448;13.270;2024-03-02T00:12:31;44.63;;;33.17;;
15536;SDS011;7870;52.448;13.270;2024-03-02T00:14:58;44.40;;;33.25;;
15536;SDS011;7870;52.448;13.270;2024-03-02T00:17:28;47.47;;;37.78;;
15536;SDS011;7870;52.448;13.270;2024-03-02T00:19:55;42.30;;;30.83;;
15536;SDS011;7870;52.448;13.270;2024-03-02T00:22:22;48.85;;;34.90;;
15536;SDS011;7870;52.448;13.270;2024-03-02T00:24:48;50.83;;;34.42;;
15536;SDS011;7870;52.448;13.270;2024-03-02T00:27:15;45.35;;;34.30;;
15536;SDS011;7870;52.448;13.270;2024-03-02T00:29:44;45.40;;;31.40;;
15536;SDS011;7870;52.448;13.270;2024-03-02T00:32:13;43.72;;;31.88;;
15536;SDS011;7870;52.448;13.270;2024-03-02T00:34:42;45.85;;;33.38;;
15536;SDS011;7870;52.448;13.270;2024-03-02T00:37:08;43.53;;;31.92;;
15536;SDS011;7870;52.448;13.270;2024-03-02T00:39:35;41.92;;;31.10;;
15536;SDS011;7870;52.448;13.270;2024-03-02T00:42:02;45.90;;;32.45;;
15536;SDS011;7870;52.448;13.270;2024-03-02T00:44:28;47.63;;;33.70;;
15536;SDS011;7870;52.448;13.270;2024-03-02T00:47:01;47.38;;;32.28;;
15536;SDS011;7870;52.448;13.270;2024-03-02T00:49:28;45.95;;;33.47;;
15536;SDS011;7870;52.448;13.270;2024-03-02T00:51:55;44.42;;;34.33;;
15536;SDS011;7870;52.448;13.270;2024-03-02T00:54:25;41.58;;;32.20;;
15536;SDS011;7870;52.448;13.270;2024-03-02T00:56:52;53.30;;;35.72;;
15536;SDS011;7870;52.448;13.270;2024-03-02T00:59:22;53.15;;;37.05;;
15536;SDS011;7870;52.448;13.270;2024-03-02T01:01:49;44.00;;;32.28;;
15536;SDS011;7870;52.448;13.270;2024-03-02T01:04:16;51.97;;;35.90;;
15536;SDS011;7870;52.448;13.270;2024-03-02T01:06:42;44.45;;;34.33;;
15536;SDS011;7870;52.448;13.270;2024-03-02T01:09:09;46.40;;;33.33;;
15536;SDS011;7870;52.448;13.270;2024-03-02T01:11:36;51.28;;;36.22;;
15536;SDS011;7870;52.448;13.270;2024-03-02T01:14:02;45.22;;;33.38;;
15536;SDS011;7870;52.448;13.270;2024-03-02T01:16:30;51.75;;;36.65;;
15536;SDS011;7870;52.448;13.270;2024-03-02T01:18:56;51.92;;;37.08;;
15536;SDS011;7870;52.448;13.270;2024-03-02T01:21:23;49.20;;;35.35;;
15536;SDS011;7870;52.448;13.270;2024-03-02T01:23:50;54.60;;;34.47;;
15536;SDS011;7870;52.448;13.270;2024-03-02T01:26:16;49.88;;;34.47;;
15536;SDS011;7870;52.448;13.270;2024-03-02T01:28:43;50.13;;;34.95;;
15536;SDS011;7870;52.448;13.270;2024-03-02T01:31:09;48.42;;;34.60;;
15536;SDS011;7870;52.448;13.270;2024-03-02T01:33:36;48.05;;;32.22;;
15536;SDS011;7870;52.448;13.270;2024-03-02T01:36:03;55.05;;;36.67;;
15536;SDS011;7870;52.448;13.270;2024-03-02T01:38:29;50.53;;;34.22;;
15536;SDS011;7870;52.448;13.270;2024-03-02T01:40:57;51.10;;;33.53;;
15536;SDS011;7870;52.448;13.270;2024-03-02T01:43:24;54.53;;;33.53;;
15536;SDS011;7870;52.448;13.270;2024-03-02T01:45:52;56.30;;;37.38;;
15536;SDS011;7870;52.448;13.270;2024-03-02T01:48:19;52.40;;;35.97;;
15536;SDS011;7870;52.448;13.270;2024-03-02T01:50:46;50.47;;;33.65;;
15536;SDS011;7870;52.448;13.270;2024-03-02T01:53:12;52.08;;;34.00;;
15536;SDS011;7870;52.448;13.270;2024-03-02T01:55:39;52.13;;;34.15;;
15536;SDS011;7870;52.448;13.270;2024-03-02T01:58:05;51.83;;;34.90;;
15536;SDS011;7870;52.448;13.270;2024-03-02T02:00:33;55.13;;;35.55;;
15536;SDS011;7870;52.448;13.270;2024-03-02T02:02:59;47.00;;;33.40;;
15536;SDS011;7870;52.448;13.270;2024-03-02T02:05:26;51.40;;;33.22;;
15536;SDS011;7870;52.448;13.270;2024-03-02T02:07:52;44.58;;;32.13;;
15536;SDS011;7870;52.448;13.270;2024-03-02T02:10:19;48.92;;;34.05;;
15536;SDS011;7870;52.448;13.270;2024-03-02T02:12:45;59.30;;;35.45;;
15536;SDS011;7870;52.448;13.270;2024-03-02T02:15:31;54.45;;;34.50;;
15536;SDS011;7870;52.448;13.270;2024-03-02T02:17:58;51.08;;;34.47;;
15536;SDS011;7870;52.448;13.270;2024-03-02T02:20:25;49.78;;;33.50;;
15536;SDS011;7870;52.448;13.270;2024-03-02T02:22:56;50.00;;;33.90;;
15536;SDS011;7870;52.448;13.270;2024-03-02T02:25:23;50.67;;;34.08;;
15536;SDS011;7870;52.448;13.270;2024-03-02T02:27:49;56.45;;;36.28;;
15536;SDS011;7870;52.448;13.270;2024-03-02T02:30:20;53.28;;;34.55;;
15536;SDS011;7870;52.448;13.270;2024-03-02T02:32:51;50.13;;;33.25;;
15536;SDS011;7870;52.448;13.270;2024-03-02T02:35:18;51.67;;;33.15;;
15536;SDS011;7870;52.448;13.270;2024-03-02T02:37:45;53.47;;;34.95;;
15536;SDS011;7870;52.448;13.270;2024-03-02T02:40:13;47.40;;;33.58;;
15536;SDS011;7870;52.448;13.270;2024-03-02T02:42:39;55.10;;;33.63;;
15536;SDS011;7870;52.448;13.270;2024-03-02T02:45:06;52.58;;;35.17;;
15536;SDS011;7870;52.448;13.270;2024-03-02T02:47:33;50.92;;;35.50;;
15536;SDS011;7870;52.448;13.270;2024-03-02T02:50:03;54.08;;;34.70;;
15536;SDS011;7870;52.448;13.270;2024-03-02T02:52:31;54.00;;;34.63;;
15536;SDS011;7870;52.448;13.270;2024-03-02T02:54:59;52.83;;;36.13;;
15536;SDS011;7870;52.448;13.270;2024-03-02T02:57:25;49.05;;;33.13;;
15536;SDS011;7870;52.448;13.270;2024-03-02T02:59:52;56.63;;;35.35;;
15536;SDS011;7870;52.448;13.270;2024-03-02T03:02:19;106.78;;;49.70;;
15536;SDS011;7870;52.448;13.270;2024-03-02T03:04:45;57.00;;;35.10;;
15536;SDS011;7870;52.448;13.270;2024-03-02T03:07:12;60.78;;;37.65;;
15536;SDS011;7870;52.448;13.270;2024-03-02T03:09:38;57.10;;;36.90;;
15536;SDS011;7870;52.448;13.270;2024-03-02T03:12:05;54.80;;;35.75;;
15536;SDS011;7870;52.448;13.270;2024-03-02T03:14:31;66.18;;;39.25;;
15536;SDS011;7870;52.448;13.270;2024-03-02T03:16:58;64.18;;;38.60;;
15536;SDS011;7870;52.448;13.270;2024-03-02T03:19:25;62.88;;;40.95;;
15536;SDS011;7870;52.448;13.270;2024-03-02T03:21:51;61.42;;;40.13;;
15536;SDS011;7870;52.448;13.270;2024-03-02T03:24:18;84.38;;;51.92;;
15536;SDS011;7870;52.448;13.270;2024-03-02T03:26:45;81.93;;;49.05;;
15536;SDS011;7870;52.448;13.270;2024-03-02T03:29:11;80.15;;;53.22;;
15536;SDS011;7870;52.448;13.270;2024-03-02T03:31:38;111.45;;;66.30;;
15536;SDS011;7870;52.448;13.270;2024-03-02T03:34:04;96.22;;;59.42;;
15536;SDS011;7870;52.448;13.270;2024-03-02T03:36:31;86.07;;;48.53;;
15536;SDS011;7870;52.448;13.270;2024-03-02T03:38:58;74.72;;;46.50;;
15536;SDS011;7870;52.448;13.270;2024-03-02T03:41:24;86.70;;;52.53;;
15536;SDS011;7870;52.448;13.270;2024-03-02T03:43:51;78.97;;;46.40;;
15536;SDS011;7870;52.448;13.270;2024-03-02T03:46:18;66.68;;;40.33;;
15536;SDS011;7870;52.448;13.270;2024-03-02T03:48:44;70.25;;;45.30;;
15536;SDS011;7870;52.448;13.270;2024-03-02T03:51:11;73.95;;;44.95;;
15536;SDS011;7870;52.448;13.270;2024-03-02T03:53:37;83.95;;;46.58;;
15536;SDS011;7870;52.448;13.270;2024-03-02T03:56:04;63.05;;;40.83;;
15536;SDS011;7870;52.448;13.270;2024-03-02T03:58:31;68.50;;;44.13;;
15536;SDS011;7870;52.448;13.270;2024-03-02T04:00:58;75.18;;;46.08;;
15536;SDS011;7870;52.448;13.270;2024-03-02T04:03:25;79.20;;;52.10;;
15536;SDS011;7870;52.448;13.270;2024-03-02T04:05:51;70.13;;;46.67;;
15536;SDS011;7870;52.448;13.270;2024-03-02T04:08:18;96.05;;;62.83;;
15536;SDS011;7870;52.448;13.270;2024-03-02T04:10:45;118.00;;;70.35;;
15536;SDS011;7870;52.448;13.270;2024-03-02T04:13:11;112.00;;;64.72;;
15536;SDS011;7870;52.448;13.270;2024-03-02T04:15:38;133.15;;;68.55;;
15536;SDS011;7870;52.448;13.270;2024-03-02T04:18:05;86.53;;;57.67;;
15536;SDS011;7870;52.448;13.270;2024-03-02T04:20:31;139.73;;;75.72;;
15536;SDS011;7870;52.448;13.270;2024-03-02T04:22:58;143.40;;;77.93;;
15536;SDS011;7870;52.448;13.270;2024-03-02T04:25:24;98.82;;;59.58;;
15536;SDS011;7870;52.448;13.270;2024-03-02T04:27:51;129.80;;;72.28;;
15536;SDS011;7870;52.448;13.270;2024-03-02T04:30:18;126.95;;;71.90;;
15536;SDS011;7870;52.448;13.270;2024-03-02T04:32:44;98.55;;;53.42;;
15536;SDS011;7870;52.448;13.270;2024-03-02T04:35:13;112.43;;;64.28;;
15536;SDS011;7870;52.448;13.270;2024-03-02T04:37:39;101.45;;;59.72;;
15536;SDS011;7870;52.448;13.270;2024-03-02T04:40:06;147.15;;;80.07;;
15536;SDS011;7870;52.448;13.270;2024-03-02T04:42:36;93.57;;;53.20;;
15536;SDS011;7870;52.448;13.270;2024-03-02T04:45:03;96.88;;;56.15;;
15536;SDS011;7870;52.448;13.270;2024-03-02T04:47:30;100.38;;;60.45;;
15536;SDS011;7870;52.448;13.270;2024-03-02T04:49:57;106.95;;;55.70;;
15536;SDS011;7870;52.448;13.270;2024-03-02T04:52:23;104.00;;;56.47;;
15536;SDS011;7870;52.448;13.270;2024-03-02T04:54:50;101.72;;;61.00;;
15536;SDS011;7870;52.448;13.270;2024-03-02T04:57:35;125.90;;;67.75;;
15536;SDS011;7870;52.448;13.270;2024-03-02T05:00:01;99.43;;;56.13;;
15536;SDS011;7870;52.448;13.270;2024-03-02T05:02:28;116.57;;;66.03;;
15536;SDS011;7870;52.448;13.270;2024-03-02T05:04:54;116.47;;;68.13;;
15536;SDS011;7870;52.448;13.270;2024-03-02T05:07:21;104.97;;;61.38;;
15536;SDS011;7870;52.448;13.270;2024-03-02T05:09:48;116.88;;;68.13;;
15536;SDS011;7870;52.448;13.270;2024-03-02T05:12:14;121.28;;;70.32;;
15536;SDS011;7870;52.448;13.270;2024-03-02T05:15:04;132.68;;;72.85;;
15536;SDS011;7870;52.448;13.270;2024-03-02T05:17:31;112.63;;;63.45;;
15536;SDS011;7870;52.448;13.270;2024-03-02T05:19:57;104.32;;;59.97;;
15536;SDS011;7870;52.448;13.270;2024-03-02T05:22:24;123.88;;;68.68;;
15536;SDS011;7870;52.448;13.270;2024-03-02T05:24:51;126.35;;;68.47;;
15536;SDS011;7870;52.448;13.270;2024-03-02T05:27:17;105.47;;;63.25;;
15536;SDS011;7870;52.448;13.270;2024-03-02T05:29:44;118.55;;;67.72;;
15536;SDS011;7870;52.448;13.270;2024-03-02T05:32:10;104.85;;;59.83;;
15536;SDS011;7870;52.448;13.270;2024-03-02T05:34:37;98.45;;;59.30;;
15536;SDS011;7870;52.448;13.270;2024-03-02T05:37:03;100.07;;;60.78;;
15536;SDS011;7870;52.448;13.270;2024-03-02T05:39:30;121.13;;;66.25;;
15536;SDS011;7870;52.448;13.270;2024-03-02T05:41:56;94.60;;;56.35;;
15536;SDS011;7870;52.448;13.270;2024-03-02T05:44:23;90.88;;;54.38;;
15536;SDS011;7870;52.448;13.270;2024-03-02T05:46:49;107.03;;;61.10;;
15536;SDS011;7870;52.448;13.270;2024-03-02T05:49:16;102.88;;;59.20;;
15536;SDS011;7870;52.448;13.270;2024-03-02T05:51:43;119.10;;;67.00;;
15536;SDS011;7870;52.448;13.270;2024-03-02T05:54:09;109.60;;;59.08;;
15536;SDS011;7870;52.448;13.270;2024-03-02T05:56:36;124.28;;;65.70;;
15536;SDS011;7870;52.448;13.270;2024-03-02T05:59:02;107.78;;;59.75;;
15536;SDS011;7870;52.448;13.270;2024-03-02T06:01:39;120.00;;;60.17;;
15536;SDS011;7870;52.448;13.270;2024-03-02T06:04:06;97.75;;;54.85;;
15536;SDS011;7870;52.448;13.270;2024-03-02T06:06:33;129.90;;;68.53;;
15536;SDS011;7870;52.448;13.270;2024-03-02T06:09:03;105.38;;;62.60;;
15536;SDS011;7870;52.448;13.270;2024-03-02T06:11:36;98.88;;;53.83;;
15536;SDS011;7870;52.448;13.270;2024-03-02T06:14:03;124.63;;;70.90;;
15536;SDS011;7870;52.448;13.270;2024-03-02T06:16:30;93.90;;;49.85;;
15536;SDS011;7870;52.448;13.270;2024-03-02T06:18:57;106.43;;;56.53;;
15536;SDS011;7870;52.448;13.270;2024-03-02T06:21:24;99.13;;;53.63;;
15536;SDS011;7870;52.448;13.270;2024-03-02T06:23:52;111.82;;;61.92;;
15536;SDS011;7870;52.448;13.270;2024-03-02T06:26:19;122.38;;;60.78;;
15536;SDS011;7870;52.448;13.270;2024-03-02T06:28:50;109.28;;;58.67;;
15536;SDS011;7870;52.448;13.270;2024-03-02T06:31:17;88.32;;;53.25;;
15536;SDS011;7870;52.448;13.270;2024-03-02T06:33:43;96.60;;;51.53;;
15536;SDS011;7870;52.448;13.270;2024-03-02T06:36:10;92.35;;;55.05;;
15536;SDS011;7870;52.448;13.270;2024-03-02T06:38:38;114.13;;;58.70;;
15536;SDS011;7870;52.448;13.270;2024-03-02T06:41:08;108.90;;;57.53;;
15536;SDS011;7870;52.448;13.270;2024-03-02T06:43:35;97.63;;;52.38;;
15536;SDS011;7870;52.448;13.270;2024-03-02T06:46:02;117.53;;;56.70;;
15536;SDS011;7870;52.448;13.270;2024-03-02T06:48:29;96.82;;;52.58;;
15536;SDS011;7870;52.448;13.270;2024-03-02T06:50:56;94.95;;;53.10;;
15536;SDS011;7870;52.448;13.270;2024-03-02T06:53:24;133.02;;;61.22;;
15536;SDS011;7870;52.448;13.270;2024-03-02T06:55:51;121.85;;;63.78;;
15536;SDS011;7870;52.448;13.270;2024-03-02T06:58:17;121.90;;;60.63;;
15536;SDS011;7870;52.448;13.270;2024-03-02T07:00:44;100.63;;;52.72;;
15536;SDS011;7870;52.448;13.270;2024-03-02T07:03:10;81.53;;;50.05;;
15536;SDS011;7870;52.448;13.270;2024-03-02T07:05:38;102.95;;;58.95;;
15536;SDS011;7870;52.448;13.270;2024-03-02T07:08:05;92.10;;;56.17;;
15536;SDS011;7870;52.448;13.270;2024-03-02T07:10:32;77.10;;;50.67;;
15536;SDS011;7870;52.448;13.270;2024-03-02T07:12:58;94.25;;;55.78;;
15536;SDS011;7870;52.448;13.270;2024-03-02T07:15:25;100.25;;;59.20;;
15536;SDS011;7870;52.448;13.270;2024-03-02T07:18:10;92.28;;;57.05;;
15536;SDS011;7870;52.448;13.270;2024-03-02T07:20:37;102.35;;;59.88;;
15536;SDS011;7870;52.448;13.270;2024-03-02T07:23:05;85.65;;;54.53;;
15536;SDS011;7870;52.448;13.270;2024-03-02T07:25:32;73.95;;;48.28;;
15536;SDS011;7870;52.448;13.270;2024-03-02T07:28:01;92.72;;;55.35;;
15536;SDS011;7870;52.448;13.270;2024-03-02T07:30:29;76.43;;;49.25;;
15536;SDS011;7870;52.448;13.270;2024-03-02T07:32:59;90.03;;;55.55;;
15536;SDS011;7870;52.448;13.270;2024-03-02T07:35:26;92.30;;;57.13;;
15536;SDS011;7870;52.448;13.270;2024-03-02T07:37:57;81.57;;;51.45;;
15536;SDS011;7870;52.448;13.270;2024-03-02T07:40:24;84.80;;;53.60;;
15536;SDS011;7870;52.448;13.270;2024-03-02T07:42:51;76.63;;;50.55;;
15536;SDS011;7870;52.448;13.270;2024-03-02T07:45:17;75.57;;;47.95;;
15536;SDS011;7870;52.448;13.270;2024-03-02T07:47:44;72.88;;;46.33;;
15536;SDS011;7870;52.448;13.270;2024-03-02T07:50:11;76.15;;;48.38;;
15536;SDS011;7870;52.448;13.270;2024-03-02T07:52:37;95.72;;;56.22;;
15536;SDS011;7870;52.448;13.270;2024-03-02T07:55:04;85.65;;;54.80;;
15536;SDS011;7870;52.448;13.270;2024-03-02T07:57:31;89.82;;;55.40;;
15536;SDS011;7870;52.448;13.270;2024-03-02T07:59:58;77.45;;;51.80;;
15536;SDS011;7870;52.448;13.270;2024-03-02T08:02:25;75.82;;;51.42;;
15536;SDS011;7870;52.448;13.270;2024-03-02T08:04:52;71.78;;;49.55;;
15536;SDS011;7870;52.448;13.270;2024-03-02T08:07:18;88.05;;;55.80;;
15536;SDS011;7870;52.448;13.270;2024-03-02T08:09:45;78.03;;;49.35;;
15536;SDS011;7870;52.448;13.270;2024-03-02T08:12:12;72.18;;;48.38;;
15536;SDS011;7870;52.448;13.270;2024-03-02T08:14:38;94.45;;;58.97;;
15536;SDS011;7870;52.448;13.270;2024-03-02T08:17:05;82.93;;;51.60;;
15536;SDS011;7870;52.448;13.270;2024-03-02T08:19:36;71.55;;;46.80;;
15536;SDS011;7870;52.448;13.270;2024-03-02T08:22:03;72.93;;;45.05;;
15536;SDS011;7870;52.448;13.270;2024-03-02T08:24:29;84.80;;;54.05;;
15536;SDS011;7870;52.448;13.270;2024-03-02T08:26:56;81.40;;;50.97;;
15536;SDS011;7870;52.448;13.270;2024-03-02T08:29:24;92.70;;;58.22;;
15536;SDS011;7870;52.448;13.270;2024-03-02T08:31:50;66.45;;;45.53;;
15536;SDS011;7870;52.448;13.270;2024-03-02T08:34:17;72.13;;;48.65;;
15536;SDS011;7870;52.448;13.270;2024-03-02T08:36:43;77.75;;;50.30;;
15536;SDS011;7870;52.448;13.270;2024-03-02T08:39:10;75.57;;;52.53;;
15536;SDS011;7870;52.448;13.270;2024-03-02T08:41:44;72.40;;;47.88;;
15536;SDS011;7870;52.448;13.270;2024-03-02T08:44:11;68.32;;;47.38;;
15536;SDS011;7870;52.448;13.270;2024-03-02T08:46:39;61.97;;;43.80;;
15536;SDS011;7870;52.448;13.270;2024-03-02T08:49:06;69.82;;;47.20;;
15536;SDS011;7870;52.448;13.270;2024-03-02T08:51:33;77.32;;;53.25;;
15536;SDS011;7870;52.448;13.270;2024-03-02T08:53:59;78.10;;;50.75;;
15536;SDS011;7870;52.448;13.270;2024-03-02T08:56:26;68.38;;;47.40;;
15536;SDS011;7870;52.448;13.270;2024-03-02T08:58:52;77.78;;;53.05;;
15536;SDS011;7870;52.448;13.270;2024-03-02T09:01:19;66.97;;;46.00;;
15536;SDS011;7870;52.448;13.270;2024-03-02T09:03:46;71.10;;;48.58;;
15536;SDS011;7870;52.448;13.270;2024-03-02T09:06:13;68.68;;;48.05;;
15536;SDS011;7870;52.448;13.270;2024-03-02T09:08:40;58.50;;;41.78;;
15536;SDS011;7870;52.448;13.270;2024-03-02T09:11:07;68.20;;;47.78;;
15536;SDS011;7870;52.448;13.270;2024-03-02T09:13:33;60.75;;;43.72;;
15536;SDS011;7870;52.448;13.270;2024-03-02T09:16:00;52.08;;;38.65;;
15536;SDS011;7870;52.448;13.270;2024-03-02T09:18:26;58.00;;;41.17;;
15536;SDS011;7870;52.448;13.270;2024-03-02T09:20:53;60.95;;;43.72;;
15536;SDS011;7870;52.448;13.270;2024-03-02T09:23:20;61.75;;;45.72;;
15536;SDS011;7870;52.448;13.270;2024-03-02T09:25:47;59.22;;;43.58;;
15536;SDS011;7870;52.448;13.270;2024-03-02T09:28:15;57.92;;;42.92;;
15536;SDS011;7870;52.448;13.270;2024-03-02T09:30:41;63.03;;;43.88;;
15536;SDS011;7870;52.448;13.270;2024-03-02T09:33:08;49.38;;;36.13;;
15536;SDS011;7870;52.448;13.270;2024-03-02T09:35:37;53.47;;;40.22;;
15536;SDS011;7870;52.448;13.270;2024-03-02T09:38:04;54.47;;;41.58;;
15536;SDS011;7870;52.448;13.270;2024-03-02T09:40:31;55.33;;;42.88;;
15536;SDS011;7870;52.448;13.270;2024-03-02T09:42:58;48.55;;;38.53;;
15536;SDS011;7870;52.448;13.270;2024-03-02T09:45:25;52.13;;;39.83;;
15536;SDS011;7870;52.448;13.270;2024-03-02T09:47:53;47.97;;;36.15;;
15536;SDS011;7870;52.448;13.270;2024-03-02T09:50:19;56.05;;;42.40;;
15536;SDS011;7870;52.448;13.270;2024-03-02T09:52:49;48.33;;;36.83;;
15536;SDS011;7870;52.448;13.270;2024-03-02T09:55:16;48.28;;;38.13;;
15536;SDS011;7870;52.448;13.270;2024-03-02T09:57:45;43.55;;;33.75;;
15536;SDS011;7870;52.448;13.270;2024-03-02T10:00:12;41.92;;;32.33;;
15536;SDS011;7870;52.448;13.270;2024-03-02T10:02:41;42.00;;;33.03;;
15536;SDS011;7870;52.448;13.270;2024-03-02T10:05:08;42.67;;;32.58;;
15536;SDS011;7870;52.448;13.270;2024-03-02T10:07:35;46.17;;;33.25;;
15536;SDS011;7870;52.448;13.270;2024-03-02T10:10:12;45.08;;;37.10;;
15536;SDS011;7870;52.448;13.270;2024-03-02T10:12:39;45.38;;;34.13;;
15536;SDS011;7870;52.448;13.270;2024-03-02T10:15:06;34.90;;;29.73;;
15536;SDS011;7870;52.448;13.270;2024-03-02T10:17:33;46.55;;;34.33;;
15536;SDS011;7870;52.448;13.270;2024-03-02T10:20:20;38.33;;;32.90;;
15536;SDS011;7870;52.448;13.270;2024-03-02T10:22:55;40.42;;;30.77;;
15536;SDS011;7870;52.448;13.270;2024-03-02T10:25:29;33.08;;;28.90;;
15536;SDS011;7870;52.448;13.270;2024-03-02T10:28:16;39.35;;;30.38;;
15536;SDS011;7870;52.448;13.270;2024-03-02T10:30:42;31.80;;;26.98;;
15536;SDS011;7870;52.448;13.270;2024-03-02T10:33:09;36.08;;;29.85;;
15536;SDS011;7870;52.448;13.270;2024-03-02T10:35:36;34.55;;;28.67;;
15536;SDS011;7870;52.448;13.270;2024-03-02T10:38:05;35.22;;;27.23;;
15536;SDS011;7870;52.448;13.270;2024-03-02T10:40:32;28.95;;;24.88;;
15536;SDS011;7870;52.448;13.270;2024-03-02T10:43:00;31.40;;;26.90;;
15536;SDS011;7870;52.448;13.270;2024-03-02T10:45:29;32.10;;;26.45;;
15536;SDS011;7870;52.448;13.270;2024-03-02T10:47:56;31.35;;;25.63;;
15536;SDS011;7870;52.448;13.270;2024-03-02T10:50:23;26.40;;;23.60;;
15536;SDS011;7870;52.448;13.270;2024-03-02T10:52:50;31.67;;;26.77;;
15536;SDS011;7870;52.448;13.270;2024-03-02T10:55:17;28.25;;;24.88;;
15536;SDS011;7870;52.448;13.270;2024-03-02T10:57:54;30.48;;;25.58;;
15536;SDS011;7870;52.448;13.270;2024-03-02T11:00:24;29.30;;;25.15;;
15536;SDS011;7870;52.448;13.270;2024-03-02T11:02:57;29.92;;;25.58;;
15536;SDS011;7870;52.448;13.270;2024-03-02T11:05:33;26.60;;;23.00;;
15536;SDS011;7870;52.448;13.270;2024-03-02T11:08:02;25.90;;;22.03;;
15536;SDS011;7870;52.448;13.270;2024-03-02T11:13:17;28.02;;;22.02;;
15536;SDS011;7870;52.448;13.270;2024-03-02T11:15:48;24.05;;;21.27;;
15536;SDS011;7870;52.448;13.270;2024-03-02T11:18:18;29.02;;;23.35;;
15536;SDS011;7870;52.448;13.270;2024-03-02T11:20:45;25.70;;;21.02;;
15536;SDS011;7870;52.448;13.270;2024-03-02T11:23:12;26.85;;;22.40;;
15536;SDS011;7870;52.448;13.270;2024-03-02T11:25:40;31.00;;;24.70;;
15536;SDS011;7870;52.448;13.270;2024-03-02T11:28:06;22.48;;;19.65;;
15536;SDS011;7870;52.448;13.270;2024-03-02T11:33:13;27.13;;;21.85;;
15536;SDS011;7870;52.448;13.270;2024-03-02T11:35:42;25.25;;;20.20;;
15536;SDS011;7870;52.448;13.270;2024-03-02T11:38:09;24.52;;;21.25;;
15536;SDS011;7870;52.448;13.270;2024-03-02T11:40:36;22.45;;;20.08;;
15536;SDS011;7870;52.448;13.270;2024-03-02T11:43:05;26.52;;;21.98;;
15536;SDS011;7870;52.448;13.270;2024-03-02T11:45:32;20.40;;;18.20;;
15536;SDS011;7870;52.448;13.270;2024-03-02T11:48:00;21.40;;;18.45;;
15536;SDS011;7870;52.448;13.270;2024-03-02T11:53:06;22.23;;;18.08;;
15536;SDS011;7870;52.448;13.270;2024-03-02T11:55:37;21.17;;;18.88;;
15536;SDS011;7870;52.448;13.270;2024-03-02T11:58:04;22.25;;;19.80;;
15536;SDS011;7870;52.448;13.270;2024-03-02T12:00:31;21.48;;;19.38;;
15536;SDS011;7870;52.448;13.270;2024-03-02T12:03:02;20.13;;;17.52;;
15536;SDS011;7870;52.448;13.270;2024-03-02T12:05:35;23.20;;;18.70;;
15536;SDS011;7870;52.448;13.270;2024-03-02T12:08:03;20.55;;;18.00;;
15536;SDS011;7870;52.448;13.270;2024-03-02T12:10:31;18.80;;;16.80;;
15536;SDS011;7870;52.448;13.270;2024-03-02T12:12:58;19.60;;;17.50;;
15536;SDS011;7870;52.448;13.270;2024-03-02T12:15:29;19.02;;;15.45;;
15536;SDS011;7870;52.448;13.270;2024-03-02T12:17:56;19.55;;;17.08;;
15536;SDS011;7870;52.448;13.270;2024-03-02T12:20:25;17.85;;;15.77;;
15536;SDS011;7870;52.448;13.270;2024-03-02T12:22:52;17.27;;;15.27;;
15536;SDS011;7870;52.448;13.270;2024-03-02T12:25:19;18.75;;;16.85;;
15536;SDS011;7870;52.448;13.270;2024-03-02T12:27:47;19.95;;;17.95;;
15536;SDS011;7870;52.448;13.270;2024-03-02T12:30:16;21.30;;;18.00;;
15536;SDS011;7870;52.448;13.270;2024-03-02T12:32:43;18.58;;;16.58;;
15536;SDS011;7870;52.448;13.270;2024-03-02T12:35:10;19.35;;;17.25;;
15536;SDS011;7870;52.448;13.270;2024-03-02T12:37:47;17.48;;;15.65;;
15536;SDS011;7870;52.448;13.270;2024-03-02T12:40:14;17.95;;;16.00;;
15536;SDS011;7870;52.448;13.270;2024-03-02T12:42:45;15.77;;;13.87;;
15536;SDS011;7870;52.448;13.270;2024-03-02T12:45:12;16.52;;;13.50;;
15536;SDS011;7870;52.448;13.270;2024-03-02T12:47:39;17.23;;;15.02;;
15536;SDS011;7870;52.448;13.270;2024-03-02T12:50:07;15.07;;;12.82;;
15536;SDS011;7870;52.448;13.270;2024-03-02T12:52:34;16.95;;;14.02;;
15536;SDS011;7870;52.448;13.270;2024-03-02T12:55:00;17.02;;;15.23;;
15536;SDS011;7870;52.448;13.270;2024-03-02T12:57:30;19.10;;;15.85;;
15536;SDS011;7870;52.448;13.270;2024-03-02T13:00:01;19.13;;;13.68;;
15536;SDS011;7870;52.448;13.270;2024-03-02T13:02:36;14.75;;;13.20;;
15536;SDS011;7870;52.448;13.270;2024-03-02T13:05:02;16.35;;;14.38;;
15536;SDS011;7870;52.448;13.270;2024-03-02T13:07:29;15.32;;;12.93;;
15536;SDS011;7870;52.448;13.270;2024-03-02T13:09:56;18.55;;;14.95;;
15536;SDS011;7870;52.448;13.270;2024-03-02T13:12:24;27.20;;;15.25;;
15536;SDS011;7870;52.448;13.270;2024-03-02T13:14:53;18.13;;;16.02;;
15536;SDS011;7870;52.448;13.270;2024-03-02T13:17:20;15.52;;;13.30;;
15536;SDS011;7870;52.448;13.270;2024-03-02T13:19:51;15.35;;;13.45;;
15536;SDS011;7870;52.448;13.270;2024-03-02T13:22:19;18.52;;;15.25;;
15536;SDS011;7870;52.448;13.270;2024-03-02T13:24:46;16.25;;;12.85;;
15536;SDS011;7870;52.448;13.270;2024-03-02T13:27:13;14.20;;;12.57;;
15536;SDS011;7870;52.448;13.270;2024-03-02T13:29:40;16.83;;;14.07;;
15536;SDS011;7870;52.448;13.270;2024-03-02T13:32:06;15.88;;;12.35;;
15536;SDS011;7870;52.448;13.270;2024-03-02T13:34:33;17.30;;;13.95;;
15536;SDS011;7870;52.448;13.270;2024-03-02T13:37:00;16.58;;;14.02;;
15536;SDS011;7870;52.448;13.270;2024-03-02T13:39:28;17.65;;;14.93;;
15536;SDS011;7870;52.448;13.270;2024-03-02T13:41:57;19.23;;;14.05;;
15536;SDS011;7870;52.448;13.270;2024-03-02T13:44:30;20.27;;;14.73;;
15536;SDS011;7870;52.448;13.270;2024-03-02T13:46:57;18.23;;;16.02;;
15536;SDS011;7870;52.448;13.270;2024-03-02T13:49:25;15.38;;;13.38;;
15536;SDS011;7870;52.448;13.270;2024-03-02T13:52:05;16.42;;;14.68;;
15536;SDS011;7870;52.448;13.270;2024-03-02T13:54:40;18.45;;;16.08;;
15536;SDS011;7870;52.448;13.270;2024-03-02T13:57:08;22.88;;;17.65;;
15536;SDS011;7870;52.448;13.270;2024-03-02T13:59:35;20.90;;;16.85;;
15536;SDS011;7870;52.448;13.270;2024-03-02T14:02:02;19.77;;;17.70;;
15536;SDS011;7870;52.448;13.270;2024-03-02T14:04:36;21.75;;;16.95;;
15536;SDS011;7870;52.448;13.270;2024-03-02T14:07:03;19.67;;;16.73;;
15536;SDS011;7870;52.448;13.270;2024-03-02T14:09:30;17.92;;;14.73;;
15536;SDS011;7870;52.448;13.270;2024-03-02T14:11:57;18.27;;;16.27;;
15536;SDS011;7870;52.448;13.270;2024-03-02T14:14:23;18.98;;;14.85;;
15536;SDS011;7870;52.448;13.270;2024-03-02T14:16:50;16.60;;;14.40;;
15536;SDS011;7870;52.448;13.270;2024-03-02T14:19:17;19.48;;;16.27;;
15536;SDS011;7870;52.448;13.270;2024-03-02T14:21:44;19.52;;;16.60;;
15536;SDS011;7870;52.448;13.270;2024-03-02T14:24:10;17.15;;;15.20;;
15536;SDS011;7870;52.448;13.270;2024-03-02T14:26:37;17.50;;;14.85;;
15536;SDS011;7870;52.448;13.270;2024-03-02T14:29:04;17.63;;;15.05;;